createdAt,value
2022-12-23T00:00:00.928Z,51.111259
2022-12-23T00:01:01.029Z,51.111282
2022-12-23T00:02:01.246Z,51.111176
2022-12-23T00:03:01.077Z,51.111149
2022-12-23T00:04:01.011Z,51.111115
2022-12-23T00:05:00.928Z,51.111172
2022-12-23T00:06:00.946Z,51.111294
2022-12-23T00:07:01.093Z,51.111164
2022-12-23T00:08:01.124Z,51.111099
2022-12-23T00:09:00.755Z,51.111252
2022-12-23T00:10:00.719Z,51.111210
2022-12-23T00:11:00.819Z,51.111187
2022-12-23T00:12:00.817Z,51.111214
2022-12-23T00:13:01.045Z,51.111229
2022-12-23T00:14:01.069Z,51.111137
2022-12-23T00:15:00.884Z,51.111111
2022-12-23T00:16:01.376Z,51.111118
2022-12-23T00:17:01.224Z,51.111057
2022-12-23T00:18:01.050Z,51.111057
2022-12-23T00:19:01.098Z,51.111137
2022-12-23T00:20:01.183Z,51.111118
2022-12-23T00:21:06.590Z,51.111156
2022-12-23T00:22:03.008Z,51.111332
2022-12-23T00:23:00.861Z,51.111332
2022-12-23T00:24:00.729Z,51.111240
2022-12-23T00:25:00.839Z,51.111225
2022-12-23T00:26:00.708Z,51.111198
2022-12-23T00:27:00.634Z,51.111191
2022-12-23T00:28:00.749Z,51.111294
2022-12-23T00:29:00.650Z,51.111263
2022-12-23T00:30:00.673Z,51.111233
2022-12-23T00:31:00.663Z,51.111191
2022-12-23T00:32:00.552Z,51.111130
2022-12-23T00:33:00.592Z,51.111126
2022-12-23T00:34:00.544Z,51.111206
2022-12-23T00:35:00.660Z,51.111298
2022-12-23T00:36:00.548Z,51.111290
2022-12-23T00:37:00.454Z,51.111259
2022-12-23T00:38:00.810Z,51.111286
2022-12-23T00:39:00.527Z,51.111252
2022-12-23T00:40:06.279Z,51.111290
2022-12-23T00:41:02.468Z,51.111279
2022-12-23T00:42:00.485Z,51.111225
2022-12-23T00:43:00.635Z,51.111183
2022-12-23T00:44:00.565Z,51.111069
2022-12-23T00:45:00.505Z,51.111179
2022-12-23T00:46:00.656Z,51.111187
2022-12-23T00:47:00.577Z,51.111195
2022-12-23T00:48:00.628Z,51.111252
2022-12-23T00:49:00.351Z,51.111221
2022-12-23T00:50:00.548Z,51.111256
2022-12-23T00:51:00.440Z,51.111237
2022-12-23T00:52:00.406Z,51.111248
2022-12-23T00:53:00.502Z,51.111248
2022-12-23T00:54:00.331Z,51.111210
2022-12-23T00:55:00.314Z,51.111187
2022-12-23T00:56:00.405Z,51.111191
2022-12-23T00:57:00.366Z,51.111298
2022-12-23T00:58:00.420Z,51.111248
2022-12-23T00:59:00.330Z,51.111229
2022-12-23T01:00:00.500Z,51.111221
2022-12-23T01:01:00.232Z,51.111286
2022-12-23T01:02:00.524Z,51.111214
2022-12-23T01:03:00.453Z,51.111275
2022-12-23T01:04:00.309Z,51.111282
2022-12-23T01:05:00.380Z,51.111267
2022-12-23T01:06:00.280Z,51.111290
2022-12-23T01:07:00.334Z,51.111332
2022-12-23T01:08:00.376Z,51.111317
2022-12-23T01:09:00.474Z,51.111271
2022-12-23T01:10:00.401Z,51.111294
2022-12-23T01:11:00.450Z,51.111309
2022-12-23T01:12:00.364Z,51.111290
2022-12-23T01:13:00.618Z,51.111294
2022-12-23T01:14:00.543Z,51.111248
2022-12-23T01:15:00.528Z,51.111252
2022-12-23T01:16:00.479Z,51.111263
2022-12-23T01:17:00.488Z,51.111259
2022-12-23T01:18:00.510Z,51.111244
2022-12-23T01:19:00.548Z,51.111263
2022-12-23T01:20:00.609Z,51.111244
2022-12-23T01:21:00.287Z,51.111279
2022-12-23T01:22:00.307Z,51.111286
2022-12-23T01:23:00.312Z,51.111275
2022-12-23T01:24:00.352Z,51.111256
2022-12-23T01:25:00.378Z,51.111271
2022-12-23T01:26:00.218Z,51.111294
2022-12-23T01:27:00.260Z,51.111263
2022-12-23T01:28:00.136Z,51.111267
2022-12-23T01:29:00.325Z,51.111290
2022-12-23T01:30:00.263Z,51.111309
2022-12-23T01:31:00.231Z,51.111263
2022-12-23T01:32:00.436Z,51.111279
2022-12-23T01:33:00.370Z,51.111275
2022-12-23T01:34:00.455Z,51.111298
2022-12-23T01:35:00.519Z,51.111286
2022-12-23T01:36:00.137Z,51.111286
2022-12-23T01:37:00.342Z,51.111286
2022-12-23T01:38:00.231Z,51.111286
2022-12-23T01:39:00.235Z,51.111282
2022-12-23T01:40:00.246Z,51.111317
2022-12-23T01:41:00.248Z,51.111305
2022-12-23T01:42:00.270Z,51.111324
2022-12-23T01:43:00.289Z,51.111313
2022-12-23T01:44:00.371Z,51.111305
2022-12-23T01:45:00.267Z,51.111279
2022-12-23T01:46:00.441Z,51.111282
2022-12-23T01:47:00.339Z,51.111286
2022-12-23T01:48:00.264Z,51.111286
2022-12-23T01:49:00.171Z,51.111298
2022-12-23T01:50:00.307Z,51.111290
2022-12-23T01:51:00.449Z,51.111279
2022-12-23T01:52:00.294Z,51.111248
2022-12-23T01:53:04.763Z,51.111279
2022-12-23T01:54:02.237Z,51.111320
2022-12-23T01:55:00.290Z,51.111313
2022-12-23T01:56:00.556Z,51.111305
2022-12-23T01:57:00.258Z,51.111279
2022-12-23T01:58:00.105Z,51.111275
2022-12-23T01:59:00.115Z,51.111248
2022-12-23T02:00:00.151Z,51.111279
2022-12-23T02:01:00.110Z,51.111317
2022-12-23T02:02:00.294Z,51.111340
2022-12-23T02:03:00.649Z,51.111340
2022-12-23T02:04:00.107Z,51.111336
2022-12-23T02:05:00.150Z,51.111313
2022-12-23T02:06:00.344Z,51.111305
2022-12-23T02:06:59.996Z,51.111324
2022-12-23T02:08:00.034Z,51.111309
2022-12-23T02:09:00.110Z,51.111267
2022-12-23T02:10:00.002Z,51.111279
2022-12-23T02:11:00.277Z,51.111336
2022-12-23T02:12:00.162Z,51.111332
2022-12-23T02:13:00.146Z,51.111282
2022-12-23T02:14:00.240Z,51.111286
2022-12-23T02:14:59.946Z,51.111263
2022-12-23T02:16:00.056Z,51.111286
2022-12-23T02:17:00.098Z,51.111324
2022-12-23T02:18:00.504Z,51.111328
2022-12-23T02:19:00.032Z,51.111340
2022-12-23T02:20:00.161Z,51.111290
2022-12-23T02:21:00.051Z,51.111286
2022-12-23T02:22:00.004Z,51.111263
2022-12-23T02:22:59.984Z,51.111267
2022-12-23T02:23:59.872Z,51.111317
2022-12-23T02:24:59.879Z,51.111324
2022-12-23T02:25:59.849Z,51.111404
2022-12-23T02:27:00.167Z,51.111378
2022-12-23T02:27:59.942Z,51.111465
2022-12-23T02:28:59.971Z,51.111359
2022-12-23T02:29:59.736Z,51.111282
2022-12-23T02:30:59.857Z,51.111286
2022-12-23T02:31:59.921Z,51.111244
2022-12-23T02:32:59.929Z,51.111240
2022-12-23T02:34:00.114Z,51.111389
2022-12-23T02:34:59.755Z,51.111389
2022-12-23T02:35:59.810Z,51.111408
2022-12-23T02:36:59.904Z,51.111366
2022-12-23T02:37:59.851Z,51.111347
2022-12-23T02:38:59.858Z,51.111328
2022-12-23T02:39:59.764Z,51.111282
2022-12-23T02:40:59.616Z,51.111313
2022-12-23T02:41:59.770Z,51.111355
2022-12-23T02:42:59.619Z,51.111378
2022-12-23T02:43:59.621Z,51.111374
2022-12-23T02:44:59.744Z,51.111370
2022-12-23T02:45:59.842Z,51.111324
2022-12-23T02:46:59.932Z,51.111259
2022-12-23T02:47:59.795Z,51.111256
2022-12-23T02:48:59.782Z,51.111305
2022-12-23T02:49:59.859Z,51.111267
2022-12-23T02:51:00.060Z,51.111229
2022-12-23T02:51:59.951Z,51.111233
2022-12-23T02:53:00.385Z,51.111248
2022-12-23T02:53:59.615Z,51.111279
2022-12-23T02:54:59.615Z,51.111351
2022-12-23T02:55:59.746Z,51.111389
2022-12-23T02:56:59.785Z,51.111317
2022-12-23T02:57:59.680Z,51.111313
2022-12-23T02:58:59.576Z,51.111279
2022-12-23T02:59:59.601Z,51.111275
2022-12-23T03:00:59.844Z,51.111137
2022-12-23T03:01:59.745Z,51.111210
2022-12-23T03:02:59.696Z,51.111275
2022-12-23T03:03:59.675Z,51.111286
2022-12-23T03:05:00.975Z,51.111252
2022-12-23T03:06:00.742Z,51.111214
2022-12-23T03:07:02.969Z,51.111259
2022-12-23T03:08:00.787Z,51.111401
2022-12-23T03:08:59.569Z,51.111351
2022-12-23T03:09:59.667Z,51.111355
2022-12-23T03:10:59.643Z,51.111378
2022-12-23T03:11:59.789Z,51.111408
2022-12-23T03:12:59.727Z,51.111290
2022-12-23T03:13:59.688Z,51.111397
2022-12-23T03:14:59.605Z,51.111374
2022-12-23T03:15:59.764Z,51.111378
2022-12-23T03:16:59.523Z,51.111294
2022-12-23T03:17:59.588Z,51.111320
2022-12-23T03:18:59.549Z,51.111225
2022-12-23T03:19:59.480Z,51.111153
2022-12-23T03:21:07.387Z,51.111240
2022-12-23T03:21:59.372Z,51.111282
2022-12-23T03:23:00.021Z,51.111298
2022-12-23T03:23:59.568Z,51.111279
2022-12-23T03:24:59.260Z,51.111305
2022-12-23T03:25:59.495Z,51.111374
2022-12-23T03:26:59.366Z,51.111324
2022-12-23T03:27:59.387Z,51.111313
2022-12-23T03:28:59.370Z,51.111317
2022-12-23T03:29:59.328Z,51.111298
2022-12-23T03:30:59.718Z,51.111294
2022-12-23T03:31:59.603Z,51.111279
2022-12-23T03:32:59.755Z,51.111214
2022-12-23T03:33:59.526Z,51.111164
2022-12-23T03:34:59.565Z,51.111301
2022-12-23T03:35:59.364Z,51.111263
2022-12-23T03:36:59.406Z,51.111198
2022-12-23T03:37:59.426Z,51.111176
2022-12-23T03:38:59.605Z,51.111210
2022-12-23T03:39:59.477Z,51.111214
2022-12-23T03:40:59.544Z,51.111217
2022-12-23T03:41:59.399Z,51.111244
2022-12-23T03:42:59.573Z,51.111214
2022-12-23T03:43:59.624Z,51.111279
2022-12-23T03:45:36.250Z,51.111225
2022-12-23T03:46:01.490Z,51.111187
2022-12-23T03:46:59.456Z,51.111217
2022-12-23T03:47:59.257Z,51.111225
2022-12-23T03:48:59.278Z,51.111275
2022-12-23T03:49:59.410Z,51.111275
2022-12-23T03:50:59.244Z,51.111275
2022-12-23T03:51:59.308Z,51.111229
2022-12-23T03:52:59.688Z,51.111160
2022-12-23T03:53:59.253Z,51.111145
2022-12-23T03:54:59.250Z,51.111195
2022-12-23T03:55:59.607Z,51.111191
2022-12-23T03:56:59.338Z,51.111252
2022-12-23T03:57:59.580Z,51.111259
2022-12-23T03:58:59.321Z,51.111271
2022-12-23T03:59:59.277Z,51.111294
2022-12-23T04:00:59.381Z,51.111309
2022-12-23T04:01:59.604Z,51.111317
2022-12-23T04:02:59.704Z,51.111317
2022-12-23T04:03:59.309Z,51.111301
2022-12-23T04:04:59.438Z,51.111309
2022-12-23T04:05:59.590Z,51.111328
2022-12-23T04:06:59.416Z,51.111328
2022-12-23T04:07:59.225Z,51.111305
2022-12-23T04:08:59.290Z,51.111221
2022-12-23T04:09:59.256Z,51.111237
2022-12-23T04:10:59.335Z,51.111275
2022-12-23T04:11:59.228Z,51.111256
2022-12-23T04:12:59.976Z,51.111267
2022-12-23T04:13:59.215Z,51.111286
2022-12-23T04:14:59.697Z,51.111263
2022-12-23T04:15:59.273Z,51.111259
2022-12-23T04:16:59.179Z,51.111263
2022-12-23T04:17:59.202Z,51.111279
2022-12-23T04:18:59.129Z,51.111294
2022-12-23T04:19:59.027Z,51.111298
2022-12-23T04:20:59.010Z,51.111294
2022-12-23T04:21:59.039Z,51.111279
2022-12-23T04:22:59.075Z,51.111309
2022-12-23T04:23:59.139Z,51.111301
2022-12-23T04:24:59.176Z,51.111324
2022-12-23T04:25:59.864Z,51.111332
2022-12-23T04:26:59.073Z,51.111305
2022-12-23T04:27:59.597Z,51.111290
2022-12-23T04:28:59.084Z,51.111263
2022-12-23T04:29:58.903Z,51.111328
2022-12-23T04:30:58.965Z,51.111317
2022-12-23T04:31:58.923Z,51.111317
2022-12-23T04:32:58.845Z,51.111301
2022-12-23T04:33:59.125Z,51.111290
2022-12-23T04:34:58.883Z,51.111298
2022-12-23T04:35:58.917Z,51.111294
2022-12-23T04:36:58.941Z,51.111271
2022-12-23T04:37:59.377Z,51.111225
2022-12-23T04:38:59.543Z,51.111233
2022-12-23T04:39:59.271Z,51.111279
2022-12-23T04:40:59.374Z,51.111309
2022-12-23T04:41:59.136Z,51.111340
2022-12-23T04:42:59.318Z,51.111320
2022-12-23T04:43:59.116Z,51.111298
2022-12-23T04:44:59.122Z,51.111286
2022-12-23T04:45:59.084Z,51.111282
2022-12-23T04:46:59.059Z,51.111286
2022-12-23T04:47:59.024Z,51.111271
2022-12-23T04:48:58.968Z,51.111294
2022-12-23T04:49:59.137Z,51.111286
2022-12-23T04:50:58.941Z,51.111309
2022-12-23T04:51:59.026Z,51.111298
2022-12-23T04:52:59.216Z,51.111279
2022-12-23T04:53:59.009Z,51.111263
2022-12-23T04:54:58.981Z,51.111282
2022-12-23T04:55:58.982Z,51.111279
2022-12-23T04:56:58.885Z,51.111282
2022-12-23T04:57:59.158Z,51.111263
2022-12-23T04:58:59.100Z,51.111229
2022-12-23T04:59:58.889Z,51.111275
2022-12-23T05:00:59.246Z,51.111259
2022-12-23T05:01:59.011Z,51.111256
2022-12-23T05:02:59.173Z,51.111252
2022-12-23T05:03:59.100Z,51.111282
2022-12-23T05:04:58.969Z,51.111252
2022-12-23T05:05:58.698Z,51.111267
2022-12-23T05:06:58.965Z,51.111267
2022-12-23T05:07:59.021Z,51.111256
2022-12-23T05:08:58.904Z,51.111248
2022-12-23T05:09:59.192Z,51.111263
2022-12-23T05:10:59.448Z,51.111248
2022-12-23T05:11:58.644Z,51.111240
2022-12-23T05:12:58.690Z,51.111256
2022-12-23T05:13:58.452Z,51.111248
2022-12-23T05:14:58.603Z,51.111252
2022-12-23T05:15:58.894Z,51.111237
2022-12-23T05:17:05.266Z,51.111244
2022-12-23T05:18:00.643Z,51.111221
2022-12-23T05:18:58.659Z,51.111244
2022-12-23T05:19:58.613Z,51.111256
2022-12-23T05:20:58.614Z,51.111229
2022-12-23T05:21:58.820Z,51.111259
2022-12-23T05:22:58.848Z,51.111240
2022-12-23T05:23:58.875Z,51.111252
2022-12-23T05:56:42.575Z,51.111237
2022-12-23T05:57:42.604Z,51.111233
2022-12-23T05:58:42.607Z,51.111240
2022-12-23T05:59:42.727Z,51.111233
2022-12-23T06:00:42.651Z,51.111252
2022-12-23T06:01:42.679Z,51.111244
2022-12-23T06:02:44.395Z,51.111217
2022-12-23T06:03:42.660Z,51.111233
2022-12-23T06:04:42.678Z,51.111256
2022-12-23T06:05:42.443Z,51.111256
2022-12-23T06:06:42.416Z,51.111225
2022-12-23T06:07:42.406Z,51.111271
2022-12-23T06:08:42.363Z,51.111317
2022-12-23T06:09:43.359Z,51.111279
2022-12-23T06:10:42.371Z,51.111290
2022-12-23T06:11:42.469Z,51.111259
2022-12-23T06:12:42.353Z,51.111259
2022-12-23T06:13:42.345Z,51.111263
2022-12-23T06:14:42.325Z,51.111240
2022-12-23T06:15:42.422Z,51.111256
2022-12-23T06:16:42.402Z,51.111309
2022-12-23T06:17:42.399Z,51.111351
2022-12-23T06:18:42.146Z,51.111317
2022-12-23T06:19:42.250Z,51.111286
2022-12-23T06:20:42.166Z,51.111259
2022-12-23T06:21:42.187Z,51.111263
2022-12-23T06:22:42.213Z,51.111259
2022-12-23T06:23:42.146Z,51.111248
2022-12-23T06:24:42.176Z,51.111259
2022-12-23T06:25:42.150Z,51.111256
2022-12-23T06:26:42.180Z,51.111256
2022-12-23T06:27:42.198Z,51.111309
2022-12-23T06:28:42.325Z,51.111294
2022-12-23T06:29:42.102Z,51.111263
2022-12-23T06:30:42.266Z,51.111244
2022-12-23T06:31:42.285Z,51.111225
2022-12-23T06:32:42.287Z,51.111130
2022-12-23T06:33:42.426Z,51.111191
2022-12-23T06:34:42.229Z,51.111229
2022-12-23T06:35:42.178Z,51.111271
2022-12-23T06:36:42.158Z,51.111279
2022-12-23T06:37:42.108Z,51.111248
2022-12-23T06:38:43.345Z,51.111279
2022-12-23T06:39:42.120Z,51.111301
2022-12-23T06:40:42.090Z,51.111259
2022-12-23T06:42:03.113Z,51.111217
2022-12-23T06:42:42.005Z,51.111256
2022-12-23T06:43:42.232Z,51.111263
2022-12-23T06:44:42.084Z,51.111305
2022-12-23T06:45:42.083Z,51.111275
2022-12-23T06:46:42.054Z,51.111275
2022-12-23T06:47:42.120Z,51.111279
2022-12-23T06:58:10.801Z,51.111305
2022-12-23T06:59:10.697Z,51.111294
2022-12-23T07:00:10.696Z,51.111301
2022-12-23T07:01:10.745Z,51.111290
2022-12-23T07:02:10.850Z,51.111301
2022-12-23T07:03:51.898Z,51.111294
2022-12-23T07:04:10.527Z,51.111286
2022-12-23T07:05:11.789Z,51.111282
2022-12-23T07:06:15.646Z,51.111282
2022-12-23T07:39:31.790Z,51.111336
2022-12-23T07:40:31.860Z,51.111317
2022-12-23T07:41:31.870Z,51.111328
2022-12-23T07:42:47.369Z,51.111317
2022-12-23T07:43:33.760Z,51.111317
2022-12-23T07:44:31.762Z,51.111351
2022-12-23T07:45:31.915Z,51.111317
2022-12-23T07:46:31.880Z,51.111275
2022-12-23T07:47:31.659Z,51.111294
2022-12-23T07:48:31.701Z,51.111309
2022-12-23T07:49:31.676Z,51.111309
2022-12-23T07:50:31.699Z,51.111313
2022-12-23T07:51:31.645Z,51.111332
2022-12-23T07:52:31.650Z,51.111324
2022-12-23T07:53:31.652Z,51.111305
2022-12-23T07:54:31.687Z,51.111275
2022-12-23T07:55:31.640Z,51.111286
2022-12-23T07:56:31.665Z,51.111305
2022-12-23T07:58:31.599Z,51.111317
2022-12-23T07:59:31.635Z,51.111305
2022-12-23T08:00:31.611Z,51.111324
2022-12-23T08:01:31.734Z,51.111313
2022-12-23T08:02:31.831Z,51.111290
2022-12-23T08:03:31.702Z,51.111309
2022-12-23T08:04:31.780Z,51.111301
2022-12-23T08:05:35.606Z,51.111279
2022-12-23T23:15:12.936Z,51.111233
2022-12-23T23:16:12.849Z,51.111286
2022-12-23T23:17:12.963Z,51.111282
2022-12-23T23:18:12.933Z,51.111275
2022-12-23T23:19:12.941Z,51.111259
2022-12-23T23:20:12.859Z,51.111279
2022-12-23T23:21:12.795Z,51.111305
2022-12-23T23:22:12.906Z,51.111252
2022-12-23T23:23:13.896Z,51.111263
2022-12-23T23:24:13.090Z,51.111301
2022-12-23T23:25:12.786Z,51.111275
2022-12-23T23:26:12.783Z,51.111279
2022-12-23T23:27:12.819Z,51.111267
2022-12-23T23:28:12.821Z,51.111259
2022-12-23T23:29:12.776Z,51.111271
2022-12-23T23:30:13.030Z,51.111279
2022-12-23T23:32:15.597Z,51.111328
2022-12-23T23:33:12.684Z,51.111225
2022-12-23T23:34:12.694Z,51.111202
2022-12-23T23:35:12.761Z,51.111336
2022-12-23T23:36:12.699Z,51.111366
2022-12-23T23:37:12.742Z,51.111313
2022-12-23T23:38:12.669Z,51.111298
2022-12-23T23:39:12.754Z,51.111336
2022-12-23T23:40:12.644Z,51.111320
2022-12-23T23:41:16.094Z,51.111366
2022-12-23T23:42:13.724Z,51.111343
2022-12-23T23:43:12.603Z,51.111347
2022-12-23T23:44:12.646Z,51.111347
2022-12-23T23:45:12.651Z,51.111324
2022-12-23T23:46:12.740Z,51.111313
2022-12-23T23:47:12.544Z,51.111298
2022-12-23T23:48:12.575Z,51.111301
2022-12-23T23:49:12.577Z,51.111294
2022-12-23T23:50:12.525Z,51.111282
2022-12-23T23:52:10.608Z,51.111324
2022-12-23T23:52:12.529Z,51.111324
2022-12-23T23:53:12.531Z,51.111275
2022-12-23T23:54:13.329Z,51.111290
2022-12-23T23:55:12.588Z,51.111275
2022-12-23T23:56:12.577Z,51.111244
2022-12-23T23:57:12.530Z,51.111176
2022-12-23T23:58:12.557Z,51.111359
2022-12-23T23:59:13.018Z,51.111359
